sensor_id;sensor_type;location;lat;lon;timestamp;P1;durP1;ratioP1;P2;durP2;ratioP2
36573;SDS011;22578;42.668;23.232;2024-01-30T00:02:34;7.82;;;7.15;;
36573;SDS011;22578;42.668;23.232;2024-01-30T00:05:54;2.35;;;2.25;;
36573;SDS011;22578;42.668;23.232;2024-01-30T00:09:15;2.03;;;1.92;;
36573;SDS011;22578;42.668;23.232;2024-01-30T00:12:37;1.80;;;1.70;;
36573;SDS011;22578;42.668;23.232;2024-01-30T00:15:58;2.28;;;2.15;;
36573;SDS011;22578;42.668;23.232;2024-01-30T00:19:18;2.05;;;1.92;;
36573;SDS011;22578;42.668;23.232;2024-01-30T00:22:39;2.67;;;2.47;;
36573;SDS011;22578;42.668;23.232;2024-01-30T00:25:59;1.73;;;1.63;;
36573;SDS011;22578;42.668;23.232;2024-01-30T00:29:20;1.58;;;1.58;;
36573;SDS011;22578;42.668;23.232;2024-01-30T00:32:42;2.25;;;2.13;;
36573;SDS011;22578;42.668;23.232;2024-01-30T00:36:03;2.38;;;2.28;;
36573;SDS011;22578;42.668;23.232;2024-01-30T00:39:24;1.60;;;1.58;;
36573;SDS011;22578;42.668;23.232;2024-01-30T00:42:44;2.03;;;1.92;;
36573;SDS011;22578;42.668;23.232;2024-01-30T00:46:05;1.63;;;1.55;;
36573;SDS011;22578;42.668;23.232;2024-01-30T00:49:25;1.85;;;1.75;;
36573;SDS011;22578;42.668;23.232;2024-01-30T00:52:46;1.80;;;1.70;;
36573;SDS011;22578;42.668;23.232;2024-01-30T00:56:07;2.60;;;2.22;;
36573;SDS011;22578;42.668;23.232;2024-01-30T00:59:28;2.13;;;2.03;;
36573;SDS011;22578;42.668;23.232;2024-01-30T01:02:48;2.72;;;2.10;;
36573;SDS011;22578;42.668;23.232;2024-01-30T01:06:10;3.22;;;2.92;;
36573;SDS011;22578;42.668;23.232;2024-01-30T01:09:32;2.08;;;1.98;;
36573;SDS011;22578;42.668;23.232;2024-01-30T01:12:52;1.85;;;1.75;;
36573;SDS011;22578;42.668;23.232;2024-01-30T01:16:13;2.17;;;2.08;;
36573;SDS011;22578;42.668;23.232;2024-01-30T01:19:34;1.80;;;1.70;;
36573;SDS011;22578;42.668;23.232;2024-01-30T01:22:55;1.67;;;1.58;;
36573;SDS011;22578;42.668;23.232;2024-01-30T01:26:16;2.10;;;2.00;;
36573;SDS011;22578;42.668;23.232;2024-01-30T01:29:36;2.65;;;2.45;;
36573;SDS011;22578;42.668;23.232;2024-01-30T01:32:57;1.88;;;1.77;;
36573;SDS011;22578;42.668;23.232;2024-01-30T01:36:21;2.30;;;2.15;;
36573;SDS011;22578;42.668;23.232;2024-01-30T01:39:41;1.55;;;1.52;;
36573;SDS011;22578;42.668;23.232;2024-01-30T01:43:03;2.00;;;1.90;;
36573;SDS011;22578;42.668;23.232;2024-01-30T01:46:29;1.40;;;1.40;;
36573;SDS011;22578;42.668;23.232;2024-01-30T01:49:50;1.30;;;1.30;;
36573;SDS011;22578;42.668;23.232;2024-01-30T01:53:11;1.95;;;1.85;;
36573;SDS011;22578;42.668;23.232;2024-01-30T01:56:33;1.65;;;1.55;;
36573;SDS011;22578;42.668;23.232;2024-01-30T01:59:55;1.58;;;1.52;;
36573;SDS011;22578;42.668;23.232;2024-01-30T02:03:16;2.42;;;2.33;;
36573;SDS011;22578;42.668;23.232;2024-01-30T02:06:41;7.28;;;5.90;;
36573;SDS011;22578;42.668;23.232;2024-01-30T02:10:03;5.85;;;5.45;;
36573;SDS011;22578;42.668;23.232;2024-01-30T02:13:24;2.15;;;2.05;;
36573;SDS011;22578;42.668;23.232;2024-01-30T02:16:46;1.55;;;1.55;;
36573;SDS011;22578;42.668;23.232;2024-01-30T02:20:07;2.03;;;1.80;;
36573;SDS011;22578;42.668;23.232;2024-01-30T02:23:29;1.90;;;1.80;;
36573;SDS011;22578;42.668;23.232;2024-01-30T02:26:50;1.40;;;1.40;;
36573;SDS011;22578;42.668;23.232;2024-01-30T02:30:11;1.90;;;1.80;;
36573;SDS011;22578;42.668;23.232;2024-01-30T02:33:32;2.05;;;1.95;;
36573;SDS011;22578;42.668;23.232;2024-01-30T02:36:52;1.92;;;1.83;;
36573;SDS011;22578;42.668;23.232;2024-01-30T02:40:16;1.70;;;1.60;;
36573;SDS011;22578;42.668;23.232;2024-01-30T02:43:38;4.68;;;1.80;;
36573;SDS011;22578;42.668;23.232;2024-01-30T02:46:59;1.98;;;1.88;;
36573;SDS011;22578;42.668;23.232;2024-01-30T02:50:20;1.40;;;1.40;;
36573;SDS011;22578;42.668;23.232;2024-01-30T02:53:40;1.30;;;1.30;;
36573;SDS011;22578;42.668;23.232;2024-01-30T02:57:01;1.60;;;1.60;;
36573;SDS011;22578;42.668;23.232;2024-01-30T03:00:21;1.33;;;1.33;;
36573;SDS011;22578;42.668;23.232;2024-01-30T03:03:42;4.65;;;3.75;;
36573;SDS011;22578;42.668;23.232;2024-01-30T03:07:03;3.72;;;3.42;;
36573;SDS011;22578;42.668;23.232;2024-01-30T03:10:24;1.52;;;1.50;;
36573;SDS011;22578;42.668;23.232;2024-01-30T03:13:44;2.63;;;2.40;;
36573;SDS011;22578;42.668;23.232;2024-01-30T03:17:05;1.48;;;1.48;;
36573;SDS011;22578;42.668;23.232;2024-01-30T03:20:26;1.75;;;1.65;;
36573;SDS011;22578;42.668;23.232;2024-01-30T03:23:46;1.63;;;1.60;;
36573;SDS011;22578;42.668;23.232;2024-01-30T03:27:07;1.88;;;1.77;;
36573;SDS011;22578;42.668;23.232;2024-01-30T03:30:29;2.10;;;2.00;;
36573;SDS011;22578;42.668;23.232;2024-01-30T03:33:50;1.65;;;1.60;;
36573;SDS011;22578;42.668;23.232;2024-01-30T03:37:10;1.73;;;1.63;;
36573;SDS011;22578;42.668;23.232;2024-01-30T03:40:31;1.73;;;1.65;;
36573;SDS011;22578;42.668;23.232;2024-01-30T03:43:51;1.92;;;1.83;;
36573;SDS011;22578;42.668;23.232;2024-01-30T03:47:12;2.05;;;1.95;;
36573;SDS011;22578;42.668;23.232;2024-01-30T03:50:32;1.70;;;1.63;;
36573;SDS011;22578;42.668;23.232;2024-01-30T03:53:53;2.15;;;2.05;;
36573;SDS011;22578;42.668;23.232;2024-01-30T03:57:13;1.40;;;1.40;;
36573;SDS011;22578;42.668;23.232;2024-01-30T04:00:34;1.85;;;1.75;;
36573;SDS011;22578;42.668;23.232;2024-01-30T04:03:55;2.28;;;2.17;;
36573;SDS011;22578;42.668;23.232;2024-01-30T04:07:16;1.88;;;1.80;;
36573;SDS011;22578;42.668;23.232;2024-01-30T04:10:36;1.40;;;1.40;;
36573;SDS011;22578;42.668;23.232;2024-01-30T04:13:57;1.40;;;1.40;;
36573;SDS011;22578;42.668;23.232;2024-01-30T04:17:17;1.85;;;1.75;;
36573;SDS011;22578;42.668;23.232;2024-01-30T04:20:38;2.35;;;2.17;;
36573;SDS011;22578;42.668;23.232;2024-01-30T04:23:58;1.65;;;1.58;;
36573;SDS011;22578;42.668;23.232;2024-01-30T04:27:19;1.35;;;1.35;;
36573;SDS011;22578;42.668;23.232;2024-01-30T04:30:40;1.45;;;1.40;;
36573;SDS011;22578;42.668;23.232;2024-01-30T04:34:00;1.73;;;1.65;;
36573;SDS011;22578;42.668;23.232;2024-01-30T04:37:21;2.25;;;2.10;;
36573;SDS011;22578;42.668;23.232;2024-01-30T04:40:41;1.80;;;1.70;;
36573;SDS011;22578;42.668;23.232;2024-01-30T04:44:02;2.00;;;1.90;;
36573;SDS011;22578;42.668;23.232;2024-01-30T04:47:22;2.03;;;1.92;;
36573;SDS011;22578;42.668;23.232;2024-01-30T04:50:43;1.50;;;1.50;;
36573;SDS011;22578;42.668;23.232;2024-01-30T04:54:04;1.50;;;1.50;;
36573;SDS011;22578;42.668;23.232;2024-01-30T04:57:24;1.80;;;1.70;;
36573;SDS011;22578;42.668;23.232;2024-01-30T05:00:45;1.80;;;1.70;;
36573;SDS011;22578;42.668;23.232;2024-01-30T05:04:08;1.30;;;1.30;;
36573;SDS011;22578;42.668;23.232;2024-01-30T05:07:29;1.52;;;1.52;;
36573;SDS011;22578;42.668;23.232;2024-01-30T05:10:49;2.30;;;2.20;;
36573;SDS011;22578;42.668;23.232;2024-01-30T05:14:10;1.58;;;1.58;;
36573;SDS011;22578;42.668;23.232;2024-01-30T05:17:32;1.52;;;1.52;;
36573;SDS011;22578;42.668;23.232;2024-01-30T05:20:53;1.75;;;1.67;;
36573;SDS011;22578;42.668;23.232;2024-01-30T05:24:13;2.85;;;2.65;;
36573;SDS011;22578;42.668;23.232;2024-01-30T05:27:35;1.50;;;1.48;;
36573;SDS011;22578;42.668;23.232;2024-01-30T05:30:56;1.88;;;1.77;;
36573;SDS011;22578;42.668;23.232;2024-01-30T05:34:17;1.40;;;1.40;;
36573;SDS011;22578;42.668;23.232;2024-01-30T05:37:37;1.63;;;1.58;;
36573;SDS011;22578;42.668;23.232;2024-01-30T05:40:58;2.28;;;2.08;;
36573;SDS011;22578;42.668;23.232;2024-01-30T05:44:18;2.03;;;1.92;;
36573;SDS011;22578;42.668;23.232;2024-01-30T05:47:39;2.55;;;2.33;;
36573;SDS011;22578;42.668;23.232;2024-01-30T05:51:00;4.13;;;2.47;;
36573;SDS011;22578;42.668;23.232;2024-01-30T05:54:20;1.95;;;1.85;;
36573;SDS011;22578;42.668;23.232;2024-01-30T05:57:41;2.10;;;2.00;;
36573;SDS011;22578;42.668;23.232;2024-01-30T06:01:01;1.70;;;1.60;;
36573;SDS011;22578;42.668;23.232;2024-01-30T06:04:22;3.25;;;2.95;;
36573;SDS011;22578;42.668;23.232;2024-01-30T06:07:43;1.75;;;1.65;;
36573;SDS011;22578;42.668;23.232;2024-01-30T06:11:04;1.67;;;1.60;;
36573;SDS011;22578;42.668;23.232;2024-01-30T06:14:24;2.20;;;2.10;;
36573;SDS011;22578;42.668;23.232;2024-01-30T06:17:45;2.38;;;2.17;;
36573;SDS011;22578;42.668;23.232;2024-01-30T06:21:05;2.13;;;2.03;;
36573;SDS011;22578;42.668;23.232;2024-01-30T06:24:26;2.28;;;2.13;;
36573;SDS011;22578;42.668;23.232;2024-01-30T06:27:47;2.00;;;1.90;;
36573;SDS011;22578;42.668;23.232;2024-01-30T06:31:08;2.15;;;2.05;;
36573;SDS011;22578;42.668;23.232;2024-01-30T06:34:29;1.83;;;1.73;;
36573;SDS011;22578;42.668;23.232;2024-01-30T06:37:49;1.50;;;1.50;;
36573;SDS011;22578;42.668;23.232;2024-01-30T06:41:10;1.80;;;1.70;;
36573;SDS011;22578;42.668;23.232;2024-01-30T06:44:31;1.75;;;1.65;;
36573;SDS011;22578;42.668;23.232;2024-01-30T06:47:51;2.03;;;1.92;;
36573;SDS011;22578;42.668;23.232;2024-01-30T06:51:12;1.40;;;1.40;;
36573;SDS011;22578;42.668;23.232;2024-01-30T06:54:32;1.65;;;1.60;;
36573;SDS011;22578;42.668;23.232;2024-01-30T06:57:53;1.63;;;1.60;;
36573;SDS011;22578;42.668;23.232;2024-01-30T07:01:14;3.25;;;2.78;;
36573;SDS011;22578;42.668;23.232;2024-01-30T07:04:34;2.90;;;2.67;;
36573;SDS011;22578;42.668;23.232;2024-01-30T07:07:57;1.83;;;1.73;;
36573;SDS011;22578;42.668;23.232;2024-01-30T07:11:21;1.88;;;1.77;;
36573;SDS011;22578;42.668;23.232;2024-01-30T07:14:42;1.48;;;1.48;;
36573;SDS011;22578;42.668;23.232;2024-01-30T07:18:03;1.40;;;1.40;;
36573;SDS011;22578;42.668;23.232;2024-01-30T07:21:24;2.03;;;1.92;;
36573;SDS011;22578;42.668;23.232;2024-01-30T07:24:48;1.30;;;1.30;;
36573;SDS011;22578;42.668;23.232;2024-01-30T07:28:09;1.50;;;1.50;;
36573;SDS011;22578;42.668;23.232;2024-01-30T07:31:31;1.70;;;1.60;;
36573;SDS011;22578;42.668;23.232;2024-01-30T07:34:51;1.60;;;1.55;;
36573;SDS011;22578;42.668;23.232;2024-01-30T07:38:12;1.35;;;1.35;;
36573;SDS011;22578;42.668;23.232;2024-01-30T07:41:32;1.67;;;1.60;;
36573;SDS011;22578;42.668;23.232;2024-01-30T07:44:53;2.13;;;1.98;;
36573;SDS011;22578;42.668;23.232;2024-01-30T07:48:14;3.25;;;2.85;;
36573;SDS011;22578;42.668;23.232;2024-01-30T07:51:34;1.65;;;1.55;;
36573;SDS011;22578;42.668;23.232;2024-01-30T07:54:55;3.38;;;3.08;;
36573;SDS011;22578;42.668;23.232;2024-01-30T07:58:15;1.58;;;1.50;;
36573;SDS011;22578;42.668;23.232;2024-01-30T08:01:36;1.50;;;1.50;;
36573;SDS011;22578;42.668;23.232;2024-01-30T08:04:56;1.45;;;1.45;;
36573;SDS011;22578;42.668;23.232;2024-01-30T08:08:17;2.10;;;2.00;;
36573;SDS011;22578;42.668;23.232;2024-01-30T08:11:37;1.40;;;1.40;;
36573;SDS011;22578;42.668;23.232;2024-01-30T08:14:58;1.42;;;1.42;;
36573;SDS011;22578;42.668;23.232;2024-01-30T08:18:18;1.90;;;1.80;;
36573;SDS011;22578;42.668;23.232;2024-01-30T08:21:39;1.73;;;1.63;;
36573;SDS011;22578;42.668;23.232;2024-01-30T08:24:59;1.50;;;1.50;;
36573;SDS011;22578;42.668;23.232;2024-01-30T08:28:20;1.60;;;1.50;;
36573;SDS011;22578;42.668;23.232;2024-01-30T08:31:41;2.42;;;2.33;;
36573;SDS011;22578;42.668;23.232;2024-01-30T08:35:01;4.35;;;3.97;;
36573;SDS011;22578;42.668;23.232;2024-01-30T08:38:25;1.90;;;1.80;;
36573;SDS011;22578;42.668;23.232;2024-01-30T08:41:47;1.40;;;1.35;;
36573;SDS011;22578;42.668;23.232;2024-01-30T08:45:07;1.77;;;1.67;;
36573;SDS011;22578;42.668;23.232;2024-01-30T08:48:29;1.48;;;1.48;;
36573;SDS011;22578;42.668;23.232;2024-01-30T08:51:49;1.55;;;1.50;;
36573;SDS011;22578;42.668;23.232;2024-01-30T08:55:10;1.25;;;1.25;;
36573;SDS011;22578;42.668;23.232;2024-01-30T08:58:31;1.85;;;1.65;;
36573;SDS011;22578;42.668;23.232;2024-01-30T09:01:51;4.18;;;3.05;;
36573;SDS011;22578;42.668;23.232;2024-01-30T09:05:15;1.75;;;1.65;;
36573;SDS011;22578;42.668;23.232;2024-01-30T09:08:35;1.90;;;1.80;;
36573;SDS011;22578;42.668;23.232;2024-01-30T09:11:56;2.50;;;1.77;;
36573;SDS011;22578;42.668;23.232;2024-01-30T09:15:18;1.77;;;1.70;;
36573;SDS011;22578;42.668;23.232;2024-01-30T09:18:39;1.98;;;1.88;;
36573;SDS011;22578;42.668;23.232;2024-01-30T09:21:59;2.00;;;1.90;;
36573;SDS011;22578;42.668;23.232;2024-01-30T09:25:21;2.25;;;2.05;;
36573;SDS011;22578;42.668;23.232;2024-01-30T09:28:41;2.42;;;2.22;;
36573;SDS011;22578;42.668;23.232;2024-01-30T09:32:03;1.67;;;1.60;;
36573;SDS011;22578;42.668;23.232;2024-01-30T09:35:24;1.55;;;1.45;;
36573;SDS011;22578;42.668;23.232;2024-01-30T09:38:45;2.15;;;2.03;;
36573;SDS011;22578;42.668;23.232;2024-01-30T09:42:17;1.92;;;1.83;;
36573;SDS011;22578;42.668;23.232;2024-01-30T09:45:41;3.83;;;3.55;;
36573;SDS011;22578;42.668;23.232;2024-01-30T09:49:02;2.10;;;1.92;;
36573;SDS011;22578;42.668;23.232;2024-01-30T09:52:23;1.50;;;1.48;;
36573;SDS011;22578;42.668;23.232;2024-01-30T09:55:44;1.98;;;1.88;;
36573;SDS011;22578;42.668;23.232;2024-01-30T09:59:05;1.80;;;1.70;;
36573;SDS011;22578;42.668;23.232;2024-01-30T10:02:25;1.80;;;1.70;;
36573;SDS011;22578;42.668;23.232;2024-01-30T10:05:50;2.50;;;2.30;;
36573;SDS011;22578;42.668;23.232;2024-01-30T10:09:14;1.48;;;1.40;;
36573;SDS011;22578;42.668;23.232;2024-01-30T10:12:35;1.40;;;1.40;;
36573;SDS011;22578;42.668;23.232;2024-01-30T10:15:55;1.60;;;1.50;;
36573;SDS011;22578;42.668;23.232;2024-01-30T10:19:18;1.83;;;1.73;;
36573;SDS011;22578;42.668;23.232;2024-01-30T10:22:40;2.00;;;1.90;;
36573;SDS011;22578;42.668;23.232;2024-01-30T10:26:07;2.15;;;2.00;;
36573;SDS011;22578;42.668;23.232;2024-01-30T10:29:28;6.10;;;2.55;;
36573;SDS011;22578;42.668;23.232;2024-01-30T10:32:49;3.00;;;2.03;;
36573;SDS011;22578;42.668;23.232;2024-01-30T10:36:10;1.73;;;1.63;;
36573;SDS011;22578;42.668;23.232;2024-01-30T10:39:35;1.83;;;1.73;;
36573;SDS011;22578;42.668;23.232;2024-01-30T10:42:58;1.58;;;1.48;;
36573;SDS011;22578;42.668;23.232;2024-01-30T10:46:20;2.28;;;2.08;;
36573;SDS011;22578;42.668;23.232;2024-01-30T10:49:45;1.85;;;1.75;;
36573;SDS011;22578;42.668;23.232;2024-01-30T10:53:06;1.50;;;1.50;;
36573;SDS011;22578;42.668;23.232;2024-01-30T10:56:28;1.73;;;1.63;;
36573;SDS011;22578;42.668;23.232;2024-01-30T10:59:49;1.52;;;1.42;;
36573;SDS011;22578;42.668;23.232;2024-01-30T11:03:12;1.50;;;1.40;;
36573;SDS011;22578;42.668;23.232;2024-01-30T11:06:40;1.40;;;1.40;;
36573;SDS011;22578;42.668;23.232;2024-01-30T11:10:04;1.70;;;1.60;;
36573;SDS011;22578;42.668;23.232;2024-01-30T11:13:31;1.65;;;1.60;;
36573;SDS011;22578;42.668;23.232;2024-01-30T11:16:52;1.60;;;1.50;;
36573;SDS011;22578;42.668;23.232;2024-01-30T11:20:16;2.72;;;2.53;;
36573;SDS011;22578;42.668;23.232;2024-01-30T11:23:45;1.77;;;1.67;;
36573;SDS011;22578;42.668;23.232;2024-01-30T11:27:08;2.17;;;2.03;;
36573;SDS011;22578;42.668;23.232;2024-01-30T11:30:31;3.78;;;2.45;;
36573;SDS011;22578;42.668;23.232;2024-01-30T11:33:55;1.67;;;1.52;;
36573;SDS011;22578;42.668;23.232;2024-01-30T11:37:16;1.20;;;1.20;;
36573;SDS011;22578;42.668;23.232;2024-01-30T11:40:40;1.73;;;1.63;;
36573;SDS011;22578;42.668;23.232;2024-01-30T11:44:03;1.50;;;1.42;;
36573;SDS011;22578;42.668;23.232;2024-01-30T11:47:24;2.28;;;2.13;;
36573;SDS011;22578;42.668;23.232;2024-01-30T11:50:44;1.42;;;1.42;;
36573;SDS011;22578;42.668;23.232;2024-01-30T11:54:05;2.03;;;1.92;;
36573;SDS011;22578;42.668;23.232;2024-01-30T11:57:28;2.00;;;1.80;;
36573;SDS011;22578;42.668;23.232;2024-01-30T12:00:52;3.38;;;2.33;;
36573;SDS011;22578;42.668;23.232;2024-01-30T12:04:14;1.60;;;1.50;;
36573;SDS011;22578;42.668;23.232;2024-01-30T12:07:35;2.08;;;1.88;;
36573;SDS011;22578;42.668;23.232;2024-01-30T12:10:56;2.10;;;2.00;;
36573;SDS011;22578;42.668;23.232;2024-01-30T12:14:22;3.03;;;2.63;;
36573;SDS011;22578;42.668;23.232;2024-01-30T12:17:45;1.83;;;1.70;;
36573;SDS011;22578;42.668;23.232;2024-01-30T12:21:05;1.60;;;1.50;;
36573;SDS011;22578;42.668;23.232;2024-01-30T12:24:28;1.60;;;1.50;;
36573;SDS011;22578;42.668;23.232;2024-01-30T12:27:50;1.73;;;1.63;;
36573;SDS011;22578;42.668;23.232;2024-01-30T12:31:11;1.70;;;1.60;;
36573;SDS011;22578;42.668;23.232;2024-01-30T12:34:32;1.80;;;1.70;;
36573;SDS011;22578;42.668;23.232;2024-01-30T12:37:52;2.13;;;1.95;;
36573;SDS011;22578;42.668;23.232;2024-01-30T12:41:13;1.90;;;1.80;;
36573;SDS011;22578;42.668;23.232;2024-01-30T12:44:34;1.80;;;1.70;;
36573;SDS011;22578;42.668;23.232;2024-01-30T12:47:54;1.67;;;1.58;;
36573;SDS011;22578;42.668;23.232;2024-01-30T12:51:15;2.35;;;2.13;;
36573;SDS011;22578;42.668;23.232;2024-01-30T12:54:36;2.15;;;1.60;;
36573;SDS011;22578;42.668;23.232;2024-01-30T12:57:56;1.83;;;1.73;;
36573;SDS011;22578;42.668;23.232;2024-01-30T13:01:17;3.13;;;1.98;;
36573;SDS011;22578;42.668;23.232;2024-01-30T13:04:37;1.90;;;1.77;;
36573;SDS011;22578;42.668;23.232;2024-01-30T13:07:58;2.95;;;2.38;;
36573;SDS011;22578;42.668;23.232;2024-01-30T13:11:18;1.80;;;1.70;;
36573;SDS011;22578;42.668;23.232;2024-01-30T13:14:39;2.33;;;2.13;;
36573;SDS011;22578;42.668;23.232;2024-01-30T13:18:00;2.10;;;1.52;;
36573;SDS011;22578;42.668;23.232;2024-01-30T13:21:20;2.72;;;2.40;;
36573;SDS011;22578;42.668;23.232;2024-01-30T13:24:41;2.38;;;2.03;;
36573;SDS011;22578;42.668;23.232;2024-01-30T13:28:01;1.90;;;1.80;;
36573;SDS011;22578;42.668;23.232;2024-01-30T13:31:22;2.45;;;2.15;;
36573;SDS011;22578;42.668;23.232;2024-01-30T13:34:43;2.75;;;1.80;;
36573;SDS011;22578;42.668;23.232;2024-01-30T13:38:04;2.53;;;2.03;;
36573;SDS011;22578;42.668;23.232;2024-01-30T13:41:24;2.80;;;2.13;;
36573;SDS011;22578;42.668;23.232;2024-01-30T13:44:45;10.85;;;2.85;;
36573;SDS011;22578;42.668;23.232;2024-01-30T13:48:05;3.25;;;2.55;;
36573;SDS011;22578;42.668;23.232;2024-01-30T13:51:26;2.22;;;2.03;;
36573;SDS011;22578;42.668;23.232;2024-01-30T13:54:47;2.30;;;2.03;;
36573;SDS011;22578;42.668;23.232;2024-01-30T13:58:07;2.40;;;2.13;;
36573;SDS011;22578;42.668;23.232;2024-01-30T14:01:28;1.60;;;1.50;;
36573;SDS011;22578;42.668;23.232;2024-01-30T14:04:48;2.03;;;1.88;;
36573;SDS011;22578;42.668;23.232;2024-01-30T14:08:09;2.42;;;1.90;;
36573;SDS011;22578;42.668;23.232;2024-01-30T14:11:30;3.72;;;2.42;;
36573;SDS011;22578;42.668;23.232;2024-01-30T14:14:50;3.03;;;2.15;;
36573;SDS011;22578;42.668;23.232;2024-01-30T14:18:11;1.63;;;1.52;;
36573;SDS011;22578;42.668;23.232;2024-01-30T14:21:31;1.70;;;1.60;;
36573;SDS011;22578;42.668;23.232;2024-01-30T14:24:52;15.27;;;3.05;;
36573;SDS011;22578;42.668;23.232;2024-01-30T14:28:13;1.60;;;1.50;;
36573;SDS011;22578;42.668;23.232;2024-01-30T14:31:33;2.53;;;2.33;;
36573;SDS011;22578;42.668;23.232;2024-01-30T14:34:54;3.47;;;2.35;;
36573;SDS011;22578;42.668;23.232;2024-01-30T14:38:14;2.33;;;2.13;;
36573;SDS011;22578;42.668;23.232;2024-01-30T14:41:35;2.70;;;2.50;;
36573;SDS011;22578;42.668;23.232;2024-01-30T14:44:55;2.25;;;2.05;;
36573;SDS011;22578;42.668;23.232;2024-01-30T14:48:16;2.20;;;2.00;;
36573;SDS011;22578;42.668;23.232;2024-01-30T14:51:37;1.80;;;1.70;;
36573;SDS011;22578;42.668;23.232;2024-01-30T14:55:04;2.08;;;1.98;;
36573;SDS011;22578;42.668;23.232;2024-01-30T14:58:24;2.20;;;1.95;;
36573;SDS011;22578;42.668;23.232;2024-01-30T15:01:45;1.50;;;1.50;;
36573;SDS011;22578;42.668;23.232;2024-01-30T15:05:07;2.55;;;2.35;;
36573;SDS011;22578;42.668;23.232;2024-01-30T15:08:27;2.55;;;2.33;;
36573;SDS011;22578;42.668;23.232;2024-01-30T15:11:49;2.17;;;1.98;;
36573;SDS011;22578;42.668;23.232;2024-01-30T15:15:10;2.72;;;2.38;;
36573;SDS011;22578;42.668;23.232;2024-01-30T15:18:31;1.75;;;1.65;;
36573;SDS011;22578;42.668;23.232;2024-01-30T15:21:51;2.35;;;2.15;;
36573;SDS011;22578;42.668;23.232;2024-01-30T15:25:12;2.28;;;2.15;;
36573;SDS011;22578;42.668;23.232;2024-01-30T15:28:36;2.25;;;2.05;;
36573;SDS011;22578;42.668;23.232;2024-01-30T15:31:58;2.05;;;1.90;;
36573;SDS011;22578;42.668;23.232;2024-01-30T15:35:19;2.17;;;2.03;;
36573;SDS011;22578;42.668;23.232;2024-01-30T15:38:40;2.55;;;2.35;;
36573;SDS011;22578;42.668;23.232;2024-01-30T15:42:01;2.63;;;2.42;;
36573;SDS011;22578;42.668;23.232;2024-01-30T15:45:22;4.60;;;3.67;;
36573;SDS011;22578;42.668;23.232;2024-01-30T15:48:43;2.15;;;2.05;;
36573;SDS011;22578;42.668;23.232;2024-01-30T15:52:03;2.88;;;2.05;;
36573;SDS011;22578;42.668;23.232;2024-01-30T15:55:25;1.83;;;1.73;;
36573;SDS011;22578;42.668;23.232;2024-01-30T15:58:45;2.13;;;2.03;;
36573;SDS011;22578;42.668;23.232;2024-01-30T16:02:09;2.80;;;2.58;;
36573;SDS011;22578;42.668;23.232;2024-01-30T16:05:30;2.00;;;1.90;;
36573;SDS011;22578;42.668;23.232;2024-01-30T16:08:50;1.75;;;1.65;;
36573;SDS011;22578;42.668;23.232;2024-01-30T16:12:12;2.85;;;2.55;;
36573;SDS011;22578;42.668;23.232;2024-01-30T16:15:37;2.20;;;2.03;;
36573;SDS011;22578;42.668;23.232;2024-01-30T16:19:00;1.77;;;1.67;;
36573;SDS011;22578;42.668;23.232;2024-01-30T16:22:20;2.03;;;1.92;;
36573;SDS011;22578;42.668;23.232;2024-01-30T16:25:41;2.05;;;1.92;;
36573;SDS011;22578;42.668;23.232;2024-01-30T16:29:01;1.92;;;1.83;;
36573;SDS011;22578;42.668;23.232;2024-01-30T16:32:22;4.00;;;2.42;;
36573;SDS011;22578;42.668;23.232;2024-01-30T16:35:42;3.08;;;2.83;;
36573;SDS011;22578;42.668;23.232;2024-01-30T16:39:03;3.00;;;2.50;;
36573;SDS011;22578;42.668;23.232;2024-01-30T16:42:25;3.95;;;3.65;;
36573;SDS011;22578;42.668;23.232;2024-01-30T16:45:45;4.40;;;2.90;;
36573;SDS011;22578;42.668;23.232;2024-01-30T16:49:06;4.55;;;3.20;;
36573;SDS011;22578;42.668;23.232;2024-01-30T16:52:26;3.75;;;2.85;;
36573;SDS011;22578;42.668;23.232;2024-01-30T16:55:48;3.25;;;3.03;;
36573;SDS011;22578;42.668;23.232;2024-01-30T16:59:08;2.60;;;2.40;;
36573;SDS011;22578;42.668;23.232;2024-01-30T17:02:29;2.50;;;2.40;;
36573;SDS011;22578;42.668;23.232;2024-01-30T17:05:50;2.85;;;2.65;;
36573;SDS011;22578;42.668;23.232;2024-01-30T17:09:14;2.60;;;2.40;;
36573;SDS011;22578;42.668;23.232;2024-01-30T17:12:35;6.40;;;4.80;;
36573;SDS011;22578;42.668;23.232;2024-01-30T17:15:55;4.35;;;3.97;;
36573;SDS011;22578;42.668;23.232;2024-01-30T17:19:17;4.47;;;3.97;;
36573;SDS011;22578;42.668;23.232;2024-01-30T17:22:37;2.70;;;2.55;;
36573;SDS011;22578;42.668;23.232;2024-01-30T17:25:59;2.20;;;2.10;;
36573;SDS011;22578;42.668;23.232;2024-01-30T17:29:19;2.75;;;2.55;;
36573;SDS011;22578;42.668;23.232;2024-01-30T17:32:40;3.40;;;2.85;;
36573;SDS011;22578;42.668;23.232;2024-01-30T17:36:00;4.55;;;3.17;;
36573;SDS011;22578;42.668;23.232;2024-01-30T17:39:21;4.22;;;2.63;;
36573;SDS011;22578;42.668;23.232;2024-01-30T17:42:42;9.50;;;4.05;;
36573;SDS011;22578;42.668;23.232;2024-01-30T17:46:02;5.13;;;3.30;;
36573;SDS011;22578;42.668;23.232;2024-01-30T17:49:25;3.90;;;3.30;;
36573;SDS011;22578;42.668;23.232;2024-01-30T17:52:49;5.30;;;4.22;;
36573;SDS011;22578;42.668;23.232;2024-01-30T17:56:10;4.72;;;4.28;;
36573;SDS011;22578;42.668;23.232;2024-01-30T17:59:31;3.70;;;2.55;;
36573;SDS011;22578;42.668;23.232;2024-01-30T18:02:52;8.88;;;6.75;;
36573;SDS011;22578;42.668;23.232;2024-01-30T18:06:13;12.93;;;7.10;;
36573;SDS011;22578;42.668;23.232;2024-01-30T18:09:37;19.45;;;8.75;;
36573;SDS011;22578;42.668;23.232;2024-01-30T18:12:57;24.13;;;12.90;;
36573;SDS011;22578;42.668;23.232;2024-01-30T18:16:19;17.17;;;11.90;;
36573;SDS011;22578;42.668;23.232;2024-01-30T18:19:39;9.27;;;6.13;;
36573;SDS011;22578;42.668;23.232;2024-01-30T18:23:00;8.70;;;6.35;;
36573;SDS011;22578;42.668;23.232;2024-01-30T18:26:20;4.13;;;3.55;;
36573;SDS011;22578;42.668;23.232;2024-01-30T18:29:41;6.57;;;4.57;;
36573;SDS011;22578;42.668;23.232;2024-01-30T18:33:01;3.83;;;3.53;;
36573;SDS011;22578;42.668;23.232;2024-01-30T18:36:23;4.38;;;3.03;;
36573;SDS011;22578;42.668;23.232;2024-01-30T18:39:47;2.72;;;2.53;;
36573;SDS011;22578;42.668;23.232;2024-01-30T18:43:08;2.75;;;2.55;;
36573;SDS011;22578;42.668;23.232;2024-01-30T18:46:29;3.08;;;2.42;;
36573;SDS011;22578;42.668;23.232;2024-01-30T18:49:49;2.72;;;2.58;;
36573;SDS011;22578;42.668;23.232;2024-01-30T18:53:11;2.65;;;2.40;;
36573;SDS011;22578;42.668;23.232;2024-01-30T18:56:32;2.13;;;2.03;;
36573;SDS011;22578;42.668;23.232;2024-01-30T18:59:52;2.80;;;2.60;;
36573;SDS011;22578;42.668;23.232;2024-01-30T19:03:13;2.13;;;2.03;;
36573;SDS011;22578;42.668;23.232;2024-01-30T19:06:36;2.65;;;2.45;;
36573;SDS011;22578;42.668;23.232;2024-01-30T19:09:57;4.15;;;3.85;;
36573;SDS011;22578;42.668;23.232;2024-01-30T19:13:17;3.90;;;3.60;;
36573;SDS011;22578;42.668;23.232;2024-01-30T19:16:38;3.67;;;2.88;;
36573;SDS011;22578;42.668;23.232;2024-01-30T19:19:59;1.98;;;1.88;;
36573;SDS011;22578;42.668;23.232;2024-01-30T19:23:20;1.88;;;1.77;;
36573;SDS011;22578;42.668;23.232;2024-01-30T19:26:40;1.70;;;1.60;;
36573;SDS011;22578;42.668;23.232;2024-01-30T19:30:01;1.85;;;1.80;;
36573;SDS011;22578;42.668;23.232;2024-01-30T19:33:21;1.95;;;1.85;;
36573;SDS011;22578;42.668;23.232;2024-01-30T19:36:42;1.75;;;1.65;;
36573;SDS011;22578;42.668;23.232;2024-01-30T19:40:03;1.50;;;1.50;;
36573;SDS011;22578;42.668;23.232;2024-01-30T19:43:27;2.13;;;2.03;;
36573;SDS011;22578;42.668;23.232;2024-01-30T19:46:47;1.90;;;1.80;;
36573;SDS011;22578;42.668;23.232;2024-01-30T19:50:08;2.28;;;2.17;;
36573;SDS011;22578;42.668;23.232;2024-01-30T19:53:29;1.90;;;1.80;;